sensor_id;sensor_type;location;lat;lon;timestamp;P1;durP1;ratioP1;P2;durP2;ratioP2
75700;SDS011;64321;48.796;44.740;2023-10-19T00:02:16;11.18;;;4.95;;
75700;SDS011;64321;48.796;44.740;2023-10-19T00:07:21;10.90;;;5.32;;
75700;SDS011;64321;48.796;44.740;2023-10-19T00:12:24;12.23;;;5.90;;
75700;SDS011;64321;48.796;44.740;2023-10-19T00:17:26;10.18;;;4.22;;
75700;SDS011;64321;48.796;44.740;2023-10-19T00:22:30;7.75;;;3.08;;
75700;SDS011;64321;48.796;44.740;2023-10-19T00:27:37;9.45;;;3.72;;
75700;SDS011;64321;48.796;44.740;2023-10-19T00:32:40;7.90;;;3.42;;
75700;SDS011;64321;48.796;44.740;2023-10-19T00:37:42;6.13;;;2.53;;
75700;SDS011;64321;48.796;44.740;2023-10-19T00:42:46;7.60;;;2.78;;
75700;SDS011;64321;48.796;44.740;2023-10-19T00:47:55;5.32;;;2.33;;
75700;SDS011;64321;48.796;44.740;2023-10-19T00:52:57;5.90;;;2.20;;
75700;SDS011;64321;48.796;44.740;2023-10-19T00:58:00;7.20;;;1.85;;
75700;SDS011;64321;48.796;44.740;2023-10-19T01:03:11;4.18;;;1.55;;
75700;SDS011;64321;48.796;44.740;2023-10-19T01:08:19;4.70;;;1.35;;
75700;SDS011;64321;48.796;44.740;2023-10-19T01:13:34;5.55;;;1.45;;
75700;SDS011;64321;48.796;44.740;2023-10-19T01:18:37;4.30;;;1.63;;
75700;SDS011;64321;48.796;44.740;2023-10-19T01:23:39;4.47;;;1.23;;
75700;SDS011;64321;48.796;44.740;2023-10-19T01:28:42;3.85;;;1.40;;
75700;SDS011;64321;48.796;44.740;2023-10-19T01:33:50;4.22;;;1.15;;
75700;SDS011;64321;48.796;44.740;2023-10-19T01:38:53;3.83;;;1.10;;
75700;SDS011;64321;48.796;44.740;2023-10-19T01:43:57;5.00;;;1.30;;
75700;SDS011;64321;48.796;44.740;2023-10-19T01:49:07;5.50;;;0.80;;
75700;SDS011;64321;48.796;44.740;2023-10-19T01:54:12;2.80;;;0.93;;
75700;SDS011;64321;48.796;44.740;2023-10-19T01:59:16;3.55;;;0.90;;
75700;SDS011;64321;48.796;44.740;2023-10-19T02:04:19;3.03;;;1.20;;
75700;SDS011;64321;48.796;44.740;2023-10-19T02:09:23;3.28;;;0.80;;
75700;SDS011;64321;48.796;44.740;2023-10-19T02:14:28;2.60;;;0.88;;
75700;SDS011;64321;48.796;44.740;2023-10-19T02:19:32;2.55;;;0.90;;
75700;SDS011;64321;48.796;44.740;2023-10-19T02:24:37;3.78;;;0.65;;
75700;SDS011;64321;48.796;44.740;2023-10-19T02:29:41;2.50;;;0.55;;
75700;SDS011;64321;48.796;44.740;2023-10-19T02:34:44;2.70;;;0.93;;
75700;SDS011;64321;48.796;44.740;2023-10-19T02:39:47;2.17;;;0.68;;
75700;SDS011;64321;48.796;44.740;2023-10-19T02:44:51;3.33;;;1.02;;
75700;SDS011;64321;48.796;44.740;2023-10-19T02:49:53;6.13;;;2.70;;
75700;SDS011;64321;48.796;44.740;2023-10-19T02:54:58;7.13;;;2.90;;
75700;SDS011;64321;48.796;44.740;2023-10-19T03:00:04;2.85;;;1.13;;
75700;SDS011;64321;48.796;44.740;2023-10-19T03:05:12;4.20;;;1.42;;
75700;SDS011;64321;48.796;44.740;2023-10-19T03:10:19;2.78;;;1.25;;
75700;SDS011;64321;48.796;44.740;2023-10-19T03:15:47;3.15;;;0.85;;
75700;SDS011;64321;48.796;44.740;2023-10-19T03:20:51;1.85;;;0.60;;
75700;SDS011;64321;48.796;44.740;2023-10-19T03:25:56;4.20;;;1.15;;
75700;SDS011;64321;48.796;44.740;2023-10-19T03:31:19;3.65;;;1.02;;
75700;SDS011;64321;48.796;44.740;2023-10-19T03:36:23;3.20;;;0.75;;
75700;SDS011;64321;48.796;44.740;2023-10-19T03:41:25;2.53;;;0.77;;
75700;SDS011;64321;48.796;44.740;2023-10-19T03:46:29;4.57;;;0.93;;
75700;SDS011;64321;48.796;44.740;2023-10-19T03:51:39;3.95;;;1.10;;
75700;SDS011;64321;48.796;44.740;2023-10-19T03:56:43;2.38;;;0.90;;
75700;SDS011;64321;48.796;44.740;2023-10-19T04:01:46;2.88;;;0.80;;
75700;SDS011;64321;48.796;44.740;2023-10-19T04:06:49;2.28;;;0.82;;
75700;SDS011;64321;48.796;44.740;2023-10-19T04:12:18;2.15;;;0.70;;
75700;SDS011;64321;48.796;44.740;2023-10-19T04:17:21;2.80;;;0.82;;
75700;SDS011;64321;48.796;44.740;2023-10-19T04:22:25;3.90;;;0.88;;
75700;SDS011;64321;48.796;44.740;2023-10-19T04:27:28;4.05;;;1.08;;
75700;SDS011;64321;48.796;44.740;2023-10-19T04:32:30;3.05;;;0.95;;
75700;SDS011;64321;48.796;44.740;2023-10-19T04:37:34;3.83;;;0.73;;
75700;SDS011;64321;48.796;44.740;2023-10-19T04:42:37;2.60;;;0.80;;
75700;SDS011;64321;48.796;44.740;2023-10-19T04:47:39;1.17;;;0.65;;
75700;SDS011;64321;48.796;44.740;2023-10-19T04:52:42;2.40;;;0.93;;
75700;SDS011;64321;48.796;44.740;2023-10-19T04:57:44;1.98;;;0.75;;
75700;SDS011;64321;48.796;44.740;2023-10-19T05:02:47;4.55;;;0.55;;
75700;SDS011;64321;48.796;44.740;2023-10-19T05:07:49;2.03;;;0.60;;
75700;SDS011;64321;48.796;44.740;2023-10-19T05:12:52;2.40;;;0.63;;
75700;SDS011;64321;48.796;44.740;2023-10-19T05:17:57;1.55;;;0.52;;
75700;SDS011;64321;48.796;44.740;2023-10-19T05:22:59;2.47;;;0.70;;
75700;SDS011;64321;48.796;44.740;2023-10-19T05:28:03;2.33;;;1.05;;
75700;SDS011;64321;48.796;44.740;2023-10-19T05:33:05;2.55;;;0.77;;
75700;SDS011;64321;48.796;44.740;2023-10-19T05:38:08;3.28;;;1.00;;
75700;SDS011;64321;48.796;44.740;2023-10-19T05:43:11;7.30;;;1.17;;
75700;SDS011;64321;48.796;44.740;2023-10-19T05:48:13;3.35;;;1.30;;
75700;SDS011;64321;48.796;44.740;2023-10-19T05:53:17;3.08;;;1.30;;
75700;SDS011;64321;48.796;44.740;2023-10-19T05:58:20;5.03;;;1.45;;
75700;SDS011;64321;48.796;44.740;2023-10-19T06:03:23;6.03;;;2.17;;
75700;SDS011;64321;48.796;44.740;2023-10-19T06:08:25;7.75;;;3.08;;
75700;SDS011;64321;48.796;44.740;2023-10-19T06:13:29;8.25;;;2.78;;
75700;SDS011;64321;48.796;44.740;2023-10-19T06:18:31;10.10;;;4.50;;
75700;SDS011;64321;48.796;44.740;2023-10-19T06:23:34;10.57;;;4.25;;
75700;SDS011;64321;48.796;44.740;2023-10-19T06:28:37;10.02;;;3.75;;
75700;SDS011;64321;48.796;44.740;2023-10-19T06:33:42;8.65;;;2.58;;
75700;SDS011;64321;48.796;44.740;2023-10-19T06:38:44;6.03;;;2.25;;
75700;SDS011;64321;48.796;44.740;2023-10-19T06:43:47;7.53;;;2.83;;
75700;SDS011;64321;48.796;44.740;2023-10-19T06:48:49;6.70;;;3.15;;
75700;SDS011;64321;48.796;44.740;2023-10-19T06:53:53;6.82;;;2.33;;
75700;SDS011;64321;48.796;44.740;2023-10-19T06:58:55;8.05;;;2.40;;
75700;SDS011;64321;48.796;44.740;2023-10-19T07:03:58;7.22;;;2.35;;
75700;SDS011;64321;48.796;44.740;2023-10-19T07:09:01;9.38;;;2.22;;
75700;SDS011;64321;48.796;44.740;2023-10-19T07:14:07;5.13;;;2.05;;
75700;SDS011;64321;48.796;44.740;2023-10-19T07:19:10;6.75;;;2.15;;
75700;SDS011;64321;48.796;44.740;2023-10-19T07:24:12;5.32;;;1.80;;
75700;SDS011;64321;48.796;44.740;2023-10-19T07:29:24;8.30;;;2.25;;
75700;SDS011;64321;48.796;44.740;2023-10-19T07:34:27;4.78;;;2.05;;
75700;SDS011;64321;48.796;44.740;2023-10-19T07:39:32;5.25;;;2.00;;
75700;SDS011;64321;48.796;44.740;2023-10-19T07:44:35;4.82;;;1.77;;
75700;SDS011;64321;48.796;44.740;2023-10-19T07:49:38;7.20;;;2.25;;
75700;SDS011;64321;48.796;44.740;2023-10-19T07:54:41;6.97;;;2.00;;
75700;SDS011;64321;48.796;44.740;2023-10-19T07:59:43;4.70;;;1.83;;
75700;SDS011;64321;48.796;44.740;2023-10-19T08:04:46;6.93;;;2.88;;
75700;SDS011;64321;48.796;44.740;2023-10-19T08:09:49;6.28;;;2.53;;
75700;SDS011;64321;48.796;44.740;2023-10-19T08:14:52;7.95;;;3.00;;
75700;SDS011;64321;48.796;44.740;2023-10-19T08:19:55;7.78;;;2.83;;
75700;SDS011;64321;48.796;44.740;2023-10-19T08:24:57;6.45;;;2.20;;
75700;SDS011;64321;48.796;44.740;2023-10-19T08:29:59;7.07;;;2.63;;
75700;SDS011;64321;48.796;44.740;2023-10-19T08:35:02;4.53;;;1.98;;
75700;SDS011;64321;48.796;44.740;2023-10-19T08:40:06;6.15;;;2.35;;
75700;SDS011;64321;48.796;44.740;2023-10-19T08:45:09;7.80;;;2.78;;
75700;SDS011;64321;48.796;44.740;2023-10-19T08:50:15;9.63;;;2.75;;
75700;SDS011;64321;48.796;44.740;2023-10-19T08:55:17;8.20;;;3.33;;
75700;SDS011;64321;48.796;44.740;2023-10-19T09:00:22;9.15;;;3.75;;
75700;SDS011;64321;48.796;44.740;2023-10-19T09:05:27;11.30;;;4.05;;
75700;SDS011;64321;48.796;44.740;2023-10-19T09:10:30;16.13;;;5.78;;
75700;SDS011;64321;48.796;44.740;2023-10-19T09:15:34;7.28;;;2.60;;
75700;SDS011;64321;48.796;44.740;2023-10-19T09:20:37;8.07;;;3.25;;
75700;SDS011;64321;48.796;44.740;2023-10-19T09:25:40;10.52;;;3.22;;
75700;SDS011;64321;48.796;44.740;2023-10-19T09:30:42;7.65;;;2.42;;
75700;SDS011;64321;48.796;44.740;2023-10-19T09:35:45;8.15;;;1.70;;
75700;SDS011;64321;48.796;44.740;2023-10-19T09:40:50;6.78;;;2.80;;
75700;SDS011;64321;48.796;44.740;2023-10-19T09:45:53;7.43;;;2.97;;
75700;SDS011;64321;48.796;44.740;2023-10-19T09:50:57;7.70;;;2.42;;
75700;SDS011;64321;48.796;44.740;2023-10-19T09:56:00;8.73;;;2.83;;
75700;SDS011;64321;48.796;44.740;2023-10-19T10:01:05;6.47;;;2.60;;
75700;SDS011;64321;48.796;44.740;2023-10-19T10:06:15;10.15;;;4.32;;
75700;SDS011;64321;48.796;44.740;2023-10-19T10:16:23;6.82;;;2.78;;
75700;SDS011;64321;48.796;44.740;2023-10-19T10:21:29;9.13;;;2.70;;
75700;SDS011;64321;48.796;44.740;2023-10-19T10:26:57;9.57;;;3.50;;
75700;SDS011;64321;48.796;44.740;2023-10-19T10:31:55;11.30;;;4.20;;
75700;SDS011;64321;48.796;44.740;2023-10-19T10:36:58;7.75;;;3.40;;
75700;SDS011;64321;48.796;44.740;2023-10-19T10:42:02;12.23;;;5.38;;
75700;SDS011;64321;48.796;44.740;2023-10-19T10:47:10;12.25;;;5.32;;
75700;SDS011;64321;48.796;44.740;2023-10-19T10:52:14;10.88;;;4.47;;
75700;SDS011;64321;48.796;44.740;2023-10-19T10:57:34;11.32;;;3.63;;
75700;SDS011;64321;48.796;44.740;2023-10-19T11:02:36;9.70;;;3.20;;
75700;SDS011;64321;48.796;44.740;2023-10-19T11:13:07;6.55;;;2.63;;
75700;SDS011;64321;48.796;44.740;2023-10-19T11:18:09;6.75;;;2.40;;
75700;SDS011;64321;48.796;44.740;2023-10-19T11:23:12;14.80;;;5.28;;
75700;SDS011;64321;48.796;44.740;2023-10-19T11:28:17;11.45;;;4.68;;
75700;SDS011;64321;48.796;44.740;2023-10-19T11:33:21;13.15;;;4.35;;
75700;SDS011;64321;48.796;44.740;2023-10-19T11:38:26;13.35;;;4.97;;
75700;SDS011;64321;48.796;44.740;2023-10-19T11:43:29;13.48;;;4.82;;
75700;SDS011;64321;48.796;44.740;2023-10-19T11:48:33;10.02;;;3.63;;
75700;SDS011;64321;48.796;44.740;2023-10-19T11:53:35;14.30;;;4.78;;
75700;SDS011;64321;48.796;44.740;2023-10-19T11:58:38;12.40;;;3.92;;
75700;SDS011;64321;48.796;44.740;2023-10-19T12:03:44;13.80;;;5.43;;
75700;SDS011;64321;48.796;44.740;2023-10-19T12:13:53;11.30;;;5.35;;
75700;SDS011;64321;48.796;44.740;2023-10-19T12:18:56;10.38;;;4.97;;
75700;SDS011;64321;48.796;44.740;2023-10-19T12:24:00;11.85;;;5.82;;
75700;SDS011;64321;48.796;44.740;2023-10-19T12:29:03;15.20;;;4.65;;
75700;SDS011;64321;48.796;44.740;2023-10-19T12:34:09;12.95;;;5.63;;
75700;SDS011;64321;48.796;44.740;2023-10-19T12:39:13;14.25;;;6.90;;
75700;SDS011;64321;48.796;44.740;2023-10-19T12:44:36;14.02;;;6.95;;
75700;SDS011;64321;48.796;44.740;2023-10-19T12:49:41;14.40;;;6.72;;
75700;SDS011;64321;48.796;44.740;2023-10-19T12:54:44;21.15;;;8.48;;
75700;SDS011;64321;48.796;44.740;2023-10-19T12:59:50;28.98;;;10.15;;
75700;SDS011;64321;48.796;44.740;2023-10-19T13:04:52;30.60;;;10.20;;
75700;SDS011;64321;48.796;44.740;2023-10-19T13:09:54;32.70;;;9.98;;
75700;SDS011;64321;48.796;44.740;2023-10-19T13:14:59;29.00;;;10.05;;
75700;SDS011;64321;48.796;44.740;2023-10-19T13:20:04;27.67;;;9.73;;
75700;SDS011;64321;48.796;44.740;2023-10-19T13:25:18;29.23;;;8.50;;
75700;SDS011;64321;48.796;44.740;2023-10-19T13:30:31;19.70;;;7.20;;
75700;SDS011;64321;48.796;44.740;2023-10-19T13:35:41;20.50;;;7.10;;
75700;SDS011;64321;48.796;44.740;2023-10-19T13:40:43;18.52;;;5.88;;
75700;SDS011;64321;48.796;44.740;2023-10-19T13:45:49;15.32;;;5.22;;
75700;SDS011;64321;48.796;44.740;2023-10-19T13:50:55;15.45;;;5.05;;
75700;SDS011;64321;48.796;44.740;2023-10-19T13:56:02;15.02;;;5.20;;
75700;SDS011;64321;48.796;44.740;2023-10-19T14:01:06;15.43;;;5.50;;
75700;SDS011;64321;48.796;44.740;2023-10-19T14:06:13;10.77;;;3.90;;
75700;SDS011;64321;48.796;44.740;2023-10-19T14:11:16;16.23;;;7.20;;
75700;SDS011;64321;48.796;44.740;2023-10-19T14:16:19;17.27;;;7.40;;
75700;SDS011;64321;48.796;44.740;2023-10-19T14:21:22;18.20;;;7.93;;
75700;SDS011;64321;48.796;44.740;2023-10-19T14:31:32;14.57;;;6.55;;
75700;SDS011;64321;48.796;44.740;2023-10-19T14:36:35;16.30;;;7.28;;
75700;SDS011;64321;48.796;44.740;2023-10-19T14:41:38;16.33;;;7.50;;
75700;SDS011;64321;48.796;44.740;2023-10-19T14:46:42;11.63;;;5.07;;
75700;SDS011;64321;48.796;44.740;2023-10-19T14:51:45;8.82;;;4.20;;
75700;SDS011;64321;48.796;44.740;2023-10-19T14:56:47;12.13;;;4.80;;
75700;SDS011;64321;48.796;44.740;2023-10-19T15:01:50;10.77;;;4.82;;
75700;SDS011;64321;48.796;44.740;2023-10-19T15:06:54;13.00;;;5.05;;
75700;SDS011;64321;48.796;44.740;2023-10-19T15:11:56;15.45;;;5.55;;
75700;SDS011;64321;48.796;44.740;2023-10-19T15:16:59;13.48;;;5.40;;
75700;SDS011;64321;48.796;44.740;2023-10-19T15:22:01;14.82;;;5.53;;
75700;SDS011;64321;48.796;44.740;2023-10-19T15:27:04;9.40;;;3.33;;
75700;SDS011;64321;48.796;44.740;2023-10-19T15:32:06;12.05;;;3.15;;
75700;SDS011;64321;48.796;44.740;2023-10-19T15:37:09;10.85;;;2.72;;
75700;SDS011;64321;48.796;44.740;2023-10-19T15:42:14;7.93;;;2.22;;
75700;SDS011;64321;48.796;44.740;2023-10-19T15:47:17;7.63;;;2.20;;
75700;SDS011;64321;48.796;44.740;2023-10-19T15:52:24;5.70;;;1.45;;
75700;SDS011;64321;48.796;44.740;2023-10-19T15:57:26;7.32;;;1.73;;
75700;SDS011;64321;48.796;44.740;2023-10-19T16:02:30;6.85;;;1.85;;
75700;SDS011;64321;48.796;44.740;2023-10-19T16:07:34;8.38;;;2.83;;
75700;SDS011;64321;48.796;44.740;2023-10-19T16:12:38;6.90;;;2.75;;
75700;SDS011;64321;48.796;44.740;2023-10-19T16:17:41;8.25;;;2.42;;
75700;SDS011;64321;48.796;44.740;2023-10-19T16:22:46;5.90;;;2.95;;
75700;SDS011;64321;48.796;44.740;2023-10-19T16:27:48;9.25;;;3.45;;
75700;SDS011;64321;48.796;44.740;2023-10-19T16:32:51;9.60;;;4.50;;
75700;SDS011;64321;48.796;44.740;2023-10-19T16:37:53;14.27;;;6.40;;
75700;SDS011;64321;48.796;44.740;2023-10-19T16:42:55;18.60;;;7.68;;
75700;SDS011;64321;48.796;44.740;2023-10-19T16:47:58;16.67;;;8.00;;
75700;SDS011;64321;48.796;44.740;2023-10-19T16:53:00;17.10;;;8.32;;
75700;SDS011;64321;48.796;44.740;2023-10-19T16:58:03;18.48;;;7.70;;
75700;SDS011;64321;48.796;44.740;2023-10-19T17:03:07;16.88;;;7.47;;
75700;SDS011;64321;48.796;44.740;2023-10-19T17:08:10;17.85;;;5.72;;
75700;SDS011;64321;48.796;44.740;2023-10-19T17:13:12;10.23;;;4.82;;
75700;SDS011;64321;48.796;44.740;2023-10-19T17:18:15;7.03;;;3.35;;
75700;SDS011;64321;48.796;44.740;2023-10-19T17:23:18;10.02;;;4.18;;
75700;SDS011;64321;48.796;44.740;2023-10-19T17:28:21;10.23;;;3.58;;
75700;SDS011;64321;48.796;44.740;2023-10-19T17:33:25;8.07;;;3.55;;
75700;SDS011;64321;48.796;44.740;2023-10-19T17:38:29;7.88;;;3.58;;
75700;SDS011;64321;48.796;44.740;2023-10-19T17:43:32;11.70;;;3.42;;
75700;SDS011;64321;48.796;44.740;2023-10-19T17:48:35;9.13;;;3.67;;
75700;SDS011;64321;48.796;44.740;2023-10-19T17:53:37;11.68;;;3.97;;
75700;SDS011;64321;48.796;44.740;2023-10-19T17:58:42;10.05;;;4.07;;
75700;SDS011;64321;48.796;44.740;2023-10-19T18:03:45;14.63;;;5.63;;
75700;SDS011;64321;48.796;44.740;2023-10-19T18:08:47;8.82;;;3.90;;
75700;SDS011;64321;48.796;44.740;2023-10-19T18:13:51;10.20;;;4.03;;
75700;SDS011;64321;48.796;44.740;2023-10-19T18:18:53;13.43;;;4.53;;
75700;SDS011;64321;48.796;44.740;2023-10-19T18:23:55;10.75;;;4.72;;
75700;SDS011;64321;48.796;44.740;2023-10-19T18:28:58;9.50;;;4.40;;
75700;SDS011;64321;48.796;44.740;2023-10-19T18:34:00;12.90;;;5.05;;
75700;SDS011;64321;48.796;44.740;2023-10-19T18:39:03;11.27;;;4.53;;
75700;SDS011;64321;48.796;44.740;2023-10-19T18:44:05;12.35;;;5.18;;
75700;SDS011;64321;48.796;44.740;2023-10-19T18:49:08;13.70;;;5.68;;
75700;SDS011;64321;48.796;44.740;2023-10-19T18:54:12;13.05;;;5.18;;
75700;SDS011;64321;48.796;44.740;2023-10-19T18:59:19;11.52;;;4.68;;
75700;SDS011;64321;48.796;44.740;2023-10-19T19:04:22;10.75;;;4.93;;
75700;SDS011;64321;48.796;44.740;2023-10-19T19:09:24;12.70;;;5.07;;
75700;SDS011;64321;48.796;44.740;2023-10-19T19:14:27;10.35;;;5.07;;
75700;SDS011;64321;48.796;44.740;2023-10-19T19:19:30;9.82;;;4.22;;
75700;SDS011;64321;48.796;44.740;2023-10-19T19:24:33;9.63;;;4.28;;
75700;SDS011;64321;48.796;44.740;2023-10-19T19:29:38;10.98;;;4.20;;
75700;SDS011;64321;48.796;44.740;2023-10-19T19:34:41;10.82;;;4.57;;
75700;SDS011;64321;48.796;44.740;2023-10-19T19:39:44;12.25;;;4.95;;
75700;SDS011;64321;48.796;44.740;2023-10-19T19:44:46;11.93;;;5.13;;
75700;SDS011;64321;48.796;44.740;2023-10-19T19:49:49;10.45;;;4.45;;
75700;SDS011;64321;48.796;44.740;2023-10-19T19:54:51;12.57;;;5.25;;
75700;SDS011;64321;48.796;44.740;2023-10-19T19:59:55;14.13;;;5.85;;
75700;SDS011;64321;48.796;44.740;2023-10-19T20:04:57;11.45;;;5.68;;
75700;SDS011;64321;48.796;44.740;2023-10-19T20:10:00;13.80;;;6.22;;
75700;SDS011;64321;48.796;44.740;2023-10-19T20:15:04;13.35;;;6.97;;
75700;SDS011;64321;48.796;44.740;2023-10-19T20:20:07;18.85;;;7.28;;
75700;SDS011;64321;48.796;44.740;2023-10-19T20:25:15;13.38;;;7.10;;
75700;SDS011;64321;48.796;44.740;2023-10-19T20:30:19;14.07;;;7.05;;
75700;SDS011;64321;48.796;44.740;2023-10-19T20:35:22;15.68;;;7.32;;
75700;SDS011;64321;48.796;44.740;2023-10-19T20:40:26;15.32;;;8.05;;
75700;SDS011;64321;48.796;44.740;2023-10-19T20:45:46;14.15;;;7.68;;
75700;SDS011;64321;48.796;44.740;2023-10-19T20:50:50;14.50;;;7.60;;
75700;SDS011;64321;48.796;44.740;2023-10-19T20:55:58;18.02;;;8.50;;
75700;SDS011;64321;48.796;44.740;2023-10-19T21:01:04;20.23;;;9.05;;
75700;SDS011;64321;48.796;44.740;2023-10-19T21:06:10;16.70;;;9.07;;
75700;SDS011;64321;48.796;44.740;2023-10-19T21:11:19;15.18;;;6.63;;
75700;SDS011;64321;48.796;44.740;2023-10-19T21:16:21;13.32;;;6.47;;
75700;SDS011;64321;48.796;44.740;2023-10-19T21:21:26;12.65;;;7.22;;
75700;SDS011;64321;48.796;44.740;2023-10-19T21:26:29;15.20;;;7.90;;
75700;SDS011;64321;48.796;44.740;2023-10-19T21:31:31;16.77;;;9.18;;
75700;SDS011;64321;48.796;44.740;2023-10-19T21:36:34;21.13;;;9.57;;
75700;SDS011;64321;48.796;44.740;2023-10-19T21:41:36;16.23;;;9.27;;
75700;SDS011;64321;48.796;44.740;2023-10-19T21:46:38;19.05;;;8.52;;
75700;SDS011;64321;48.796;44.740;2023-10-19T21:51:41;15.95;;;8.05;;
75700;SDS011;64321;48.796;44.740;2023-10-19T21:56:43;16.95;;;9.80;;
75700;SDS011;64321;48.796;44.740;2023-10-19T22:01:45;18.20;;;9.48;;
75700;SDS011;64321;48.796;44.740;2023-10-19T22:06:48;18.95;;;10.13;;
75700;SDS011;64321;48.796;44.740;2023-10-19T22:11:50;19.42;;;8.90;;
75700;SDS011;64321;48.796;44.740;2023-10-19T22:16:52;15.98;;;8.80;;
75700;SDS011;64321;48.796;44.740;2023-10-19T22:21:55;19.00;;;9.18;;
75700;SDS011;64321;48.796;44.740;2023-10-19T22:26:57;21.13;;;8.95;;
75700;SDS011;64321;48.796;44.740;2023-10-19T22:32:01;18.17;;;8.15;;
75700;SDS011;64321;48.796;44.740;2023-10-19T22:37:03;15.07;;;8.88;;
75700;SDS011;64321;48.796;44.740;2023-10-19T22:42:06;18.83;;;9.23;;
75700;SDS011;64321;48.796;44.740;2023-10-19T22:47:08;18.33;;;8.90;;
75700;SDS011;64321;48.796;44.740;2023-10-19T22:52:11;16.15;;;8.38;;
75700;SDS011;64321;48.796;44.740;2023-10-19T22:57:13;16.15;;;8.48;;
75700;SDS011;64321;48.796;44.740;2023-10-19T23:02:16;20.33;;;8.95;;
75700;SDS011;64321;48.796;44.740;2023-10-19T23:07:19;18.10;;;9.55;;
75700;SDS011;64321;48.796;44.740;2023-10-19T23:12:21;22.95;;;10.63;;
75700;SDS011;64321;48.796;44.740;2023-10-19T23:17:25;17.70;;;9.63;;
75700;SDS011;64321;48.796;44.740;2023-10-19T23:22:34;21.13;;;9.55;;
75700;SDS011;64321;48.796;44.740;2023-10-19T23:27:37;19.55;;;8.27;;
75700;SDS011;64321;48.796;44.740;2023-10-19T23:32:39;20.05;;;9.25;;
75700;SDS011;64321;48.796;44.740;2023-10-19T23:37:42;17.90;;;9.73;;
75700;SDS011;64321;48.796;44.740;2023-10-19T23:42:44;16.58;;;8.80;;
75700;SDS011;64321;48.796;44.740;2023-10-19T23:47:47;18.05;;;9.05;;
75700;SDS011;64321;48.796;44.740;2023-10-19T23:52:49;19.10;;;8.73;;
75700;SDS011;64321;48.796;44.740;2023-10-19T23:57:52;18.08;;;8.27;;
